Aérodrome :
LOGIN :

S'inscrire | Disclaimer

   EN    FR    IT 

 










Légende :    VFR   VFR Marginal   IFR   IFR Intensif   IFR Très Intensif
Visi : 
Plafond : 
>= 8 km
>= 3000ft
5 à 8 km
1000 à 3000 ft
1500m à 5 km
500 à 1000 ft
800 à 1500m
200 à 500 ft
< 800m
< 200 ft
Symboles :   Orages  Brouillard  Fortes neiges  Fortes précipitations  Vent > 20 kt
SIGMETs :   Divers  Orages  Givrage  Turbulence  Onde Orograph.  Cendres Volcan.







- Altitude de l'aérodrome : 102 ft
- Code IATA : KEL


EDHK - Holtenau

DERNIER METAR :
  • 170920Z 23017KT CAVOK 14/11 Q1018

METARs EXPIRÉS :
  • 170850Z 24012KT CAVOK 14/11 Q1018
  • 170820Z 23012KT CAVOK 14/10 Q1018
  • 170750Z 24012KT CAVOK 14/11 Q1018
  • 170720Z 24011KT CAVOK 14/11 Q1018
  • 170650Z 23008KT 210V270 CAVOK 14/12 Q1018

TAF TAF EDHK
Valide du 17 à 09h jusqu'au 17 à 18h UTC


170800Z 1709/1718 23012G22KT CAVOK
BECMG 1716/1718 23007KT
Pas de NOTAMs connus pour ce terrain.



MET'MAP, la Météo Aéronautique d'un coup d'oeil ! - Copyright ORBIFLY Décembre 2007 - Disclaimer

ORBIFLY MET'MAP TEAM :

Programmation & Développement : Alexandra Zaïnal
Conception & Développement : Baudouin d'Aumeries
Co-Programmation & Développement : Marc-Olivier Méhu
Soutien technique & logistique : Manuel Goepfert

Contact : metmap@orbifly.com




SOURCES & CREDITS :

   NOAA